createdAt,value
2019-05-07T00:00:35.739Z,19.50
2019-05-07T00:03:04.314Z,18.67
2019-05-07T00:05:33.290Z,18.42
2019-05-07T00:08:03.026Z,16.10
2019-05-07T00:10:33.103Z,14.95
2019-05-07T00:13:02.335Z,14.78
2019-05-07T00:15:32.781Z,17.48
2019-05-07T00:18:03.242Z,16.37
2019-05-07T00:20:32.746Z,16.90
2019-05-07T00:23:02.946Z,16.45
2019-05-07T00:25:32.786Z,16.50
2019-05-07T00:28:02.776Z,14.80
2019-05-07T00:30:33.136Z,14.95
2019-05-07T00:33:02.804Z,15.78
2019-05-07T00:35:38.640Z,16.40
2019-05-07T00:38:08.782Z,15.53
2019-05-07T00:40:38.960Z,17.35
2019-05-07T00:43:12.085Z,16.67
2019-05-07T00:45:52.877Z,16.30
2019-05-07T00:48:23.454Z,15.53
2019-05-07T00:50:53.469Z,18.30
2019-05-07T00:53:23.681Z,19.20
2019-05-07T00:55:52.632Z,16.32
2019-05-07T00:58:26.266Z,17.70
2019-05-07T01:00:53.177Z,16.15
2019-05-07T01:03:22.277Z,18.17
2019-05-07T01:05:52.711Z,15.88
2019-05-07T01:08:22.498Z,15.65
2019-05-07T01:10:52.877Z,16.27
2019-05-07T01:13:23.418Z,16.27
2019-05-07T01:15:53.194Z,19.85
2019-05-07T01:18:23.231Z,16.00
2019-05-07T01:20:53.369Z,15.08
2019-05-07T01:23:22.892Z,16.82
2019-05-07T01:25:52.665Z,16.87
2019-05-07T01:28:22.349Z,17.23
2019-05-07T01:30:52.792Z,16.57
2019-05-07T01:33:25.574Z,15.83
2019-05-07T01:35:58.360Z,16.82
2019-05-07T01:38:26.887Z,15.20
2019-05-07T01:40:55.334Z,16.37
2019-05-07T01:43:23.909Z,16.82
2019-05-07T01:45:53.072Z,16.52
2019-05-07T01:48:23.002Z,19.12
2019-05-07T01:50:52.583Z,18.05
2019-05-07T01:53:22.751Z,16.65
2019-05-07T01:55:52.385Z,16.48
2019-05-07T01:58:22.152Z,15.50
2019-05-07T02:00:53.031Z,16.52
2019-05-07T02:03:32.830Z,17.95
2019-05-07T02:06:05.755Z,18.40
2019-05-07T02:08:42.435Z,15.48
2019-05-07T02:11:12.916Z,18.00
2019-05-07T02:13:42.031Z,17.32
2019-05-07T02:16:12.449Z,16.17
2019-05-07T02:18:42.418Z,15.63
2019-05-07T02:21:12.860Z,19.42
2019-05-07T02:23:42.601Z,16.15
2019-05-07T02:26:13.202Z,18.90
2019-05-07T02:28:42.681Z,19.87
2019-05-07T02:31:14.687Z,19.07
2019-05-07T02:33:43.362Z,17.92
2019-05-07T02:36:14.248Z,16.15
2019-05-07T02:38:46.600Z,17.10
2019-05-07T02:41:33.115Z,19.20
2019-05-07T02:44:04.131Z,18.27
2019-05-07T02:46:36.269Z,15.30
2019-05-07T02:49:14.286Z,19.02
2019-05-07T02:51:53.141Z,16.30
2019-05-07T02:54:24.275Z,16.07
2019-05-07T02:56:53.422Z,17.70
2019-05-07T02:59:23.304Z,16.97
2019-05-07T03:01:53.797Z,15.23
2019-05-07T03:04:25.174Z,18.37
2019-05-07T03:06:54.231Z,16.90
2019-05-07T03:09:23.221Z,16.82
2019-05-07T03:11:53.000Z,17.15
2019-05-07T03:14:23.308Z,16.42
2019-05-07T03:16:53.651Z,18.15
2019-05-07T03:19:24.199Z,19.62
2019-05-07T03:21:55.871Z,18.73
2019-05-07T03:24:43.611Z,17.95
2019-05-07T03:27:14.091Z,18.25
2019-05-07T03:29:44.501Z,18.75
2019-05-07T03:32:36.843Z,20.72
2019-05-07T03:35:07.407Z,17.10
2019-05-07T03:37:37.483Z,19.50
2019-05-07T03:40:07.372Z,19.95
2019-05-07T03:42:35.834Z,18.62
2019-05-07T03:45:14.155Z,20.20
2019-05-07T03:47:47.243Z,20.05
2019-05-07T03:50:15.756Z,23.35
2019-05-07T03:52:44.245Z,18.70
2019-05-07T03:55:14.547Z,19.10
2019-05-07T03:57:43.989Z,20.92
2019-05-07T04:00:13.614Z,20.25
2019-05-07T04:02:43.691Z,19.62
2019-05-07T04:05:14.048Z,19.95
2019-05-07T04:07:43.222Z,18.05
2019-05-07T04:10:14.675Z,18.82
2019-05-07T04:12:44.340Z,17.77
2019-05-07T04:15:14.509Z,20.77
2019-05-07T04:17:43.466Z,21.33
2019-05-07T04:20:13.398Z,17.60
2019-05-07T04:22:43.343Z,17.98
2019-05-07T04:25:34.672Z,21.55
2019-05-07T04:28:09.768Z,18.90
2019-05-07T04:33:07.880Z,19.50
2019-05-07T04:35:53.520Z,21.07
2019-05-07T04:38:23.581Z,19.32
2019-05-07T04:40:53.511Z,19.27
2019-05-07T04:43:23.239Z,24.23
2019-05-07T04:45:53.750Z,21.37
2019-05-07T04:48:23.386Z,18.70
2019-05-07T04:50:54.197Z,24.18
2019-05-07T04:53:23.850Z,20.80
2019-05-07T04:55:53.590Z,21.75
2019-05-07T04:58:23.673Z,21.30
2019-05-07T05:00:53.717Z,23.73
2019-05-07T05:03:24.287Z,22.80
2019-05-07T05:05:53.472Z,20.27
2019-05-07T05:08:23.354Z,20.32
2019-05-07T05:10:53.747Z,19.48
2019-05-07T05:13:23.779Z,21.17
2019-05-07T05:15:52.841Z,23.00
2019-05-07T05:18:22.068Z,21.60
2019-05-07T05:20:52.433Z,24.02
2019-05-07T05:23:22.806Z,25.20
2019-05-07T05:25:52.230Z,23.35
2019-05-07T05:28:21.885Z,24.55
2019-05-07T05:30:57.723Z,27.13
2019-05-07T05:33:26.229Z,24.77
2019-05-07T05:35:54.688Z,24.95
2019-05-07T05:38:23.144Z,24.32
2019-05-07T05:40:52.185Z,22.75
2019-05-07T05:43:22.536Z,23.52
2019-05-07T05:45:53.086Z,22.62
2019-05-07T05:48:22.418Z,25.48
2019-05-07T05:50:55.712Z,23.67
2019-05-07T05:53:37.890Z,26.35
2019-05-07T05:56:22.719Z,26.93
2019-05-07T05:58:54.880Z,30.15
2019-05-07T06:01:27.810Z,28.77
2019-05-07T06:04:03.979Z,25.97
2019-05-07T06:09:12.749Z,25.30
2019-05-07T06:11:45.566Z,27.17
2019-05-07T06:14:15.718Z,25.57
2019-05-07T06:16:45.874Z,24.77
2019-05-07T06:19:18.390Z,26.80
2019-05-07T06:21:54.492Z,28.02
2019-05-07T06:27:02.900Z,25.80
2019-05-07T06:29:33.020Z,27.25
2019-05-07T06:32:03.252Z,28.55
2019-05-07T06:34:34.107Z,28.47
2019-05-07T06:37:02.388Z,30.15
2019-05-07T06:39:48.845Z,25.97
2019-05-07T06:42:22.238Z,26.40
2019-05-07T06:45:04.724Z,28.42
2019-05-07T06:47:33.247Z,25.15
2019-05-07T06:50:03.136Z,28.85
2019-05-07T06:52:32.060Z,23.98
2019-05-07T06:55:03.087Z,28.00
2019-05-07T06:57:32.986Z,25.23
2019-05-07T07:00:12.497Z,24.70
2019-05-07T07:02:52.488Z,22.87
2019-05-07T07:05:35.141Z,26.55
2019-05-07T07:08:05.698Z,28.35
2019-05-07T07:10:35.867Z,24.77
2019-05-07T07:13:04.520Z,27.65
2019-05-07T07:15:32.980Z,25.82
2019-05-07T07:18:03.187Z,27.45
2019-05-07T07:20:32.599Z,27.40
2019-05-07T07:23:02.327Z,23.65
2019-05-07T07:25:32.560Z,27.15
2019-05-07T07:28:02.809Z,26.52
2019-05-07T07:30:36.003Z,29.75
2019-05-07T07:33:06.149Z,23.70
2019-05-07T07:35:34.699Z,25.32
2019-05-07T07:38:04.941Z,25.55
2019-05-07T07:40:42.198Z,23.77
2019-05-07T07:43:12.832Z,21.90
2019-05-07T07:45:42.051Z,25.72
2019-05-07T07:48:13.004Z,26.52
2019-05-07T07:50:42.105Z,27.80
2019-05-07T07:53:12.767Z,25.05
2019-05-07T07:55:42.671Z,23.20
2019-05-07T07:58:18.891Z,25.55
2019-05-07T08:01:02.801Z,25.00
2019-05-07T08:03:32.937Z,24.12
2019-05-07T08:06:02.219Z,25.17
2019-05-07T08:08:31.980Z,22.85
2019-05-07T08:11:02.433Z,22.42
2019-05-07T08:13:32.489Z,24.70
2019-05-07T08:16:02.481Z,26.70
2019-05-07T08:18:32.821Z,23.02
2019-05-07T08:21:02.521Z,22.73
2019-05-07T08:23:31.951Z,21.00
2019-05-07T08:26:02.417Z,25.48
2019-05-07T08:28:31.909Z,24.90
2019-05-07T08:31:03.004Z,21.30
2019-05-07T08:33:36.251Z,21.33
2019-05-07T08:36:09.125Z,20.30
2019-05-07T08:38:45.994Z,18.90
2019-05-07T08:41:14.627Z,17.35
2019-05-07T08:43:43.081Z,16.52
2019-05-07T08:46:18.868Z,17.05
2019-05-07T08:48:49.000Z,13.70
2019-05-07T08:51:17.627Z,17.48
2019-05-07T08:53:47.730Z,12.28
2019-05-07T08:56:16.229Z,13.03
2019-05-07T08:58:44.747Z,11.68
2019-05-07T09:01:13.213Z,13.25
2019-05-07T09:03:44.601Z,15.83
2019-05-07T09:06:14.056Z,17.57
2019-05-07T09:08:43.654Z,16.52
2019-05-07T09:11:13.353Z,14.47
2019-05-07T09:13:42.146Z,12.58
2019-05-07T09:16:12.933Z,15.55
2019-05-07T09:18:42.195Z,12.85
2019-05-07T09:21:12.593Z,13.35
2019-05-07T09:23:42.401Z,12.30
2019-05-07T09:26:13.069Z,13.15
2019-05-07T09:28:59.766Z,16.25
2019-05-07T09:31:32.105Z,14.00
2019-05-07T09:34:02.527Z,11.95
2019-05-07T09:36:48.583Z,9.88
2019-05-07T09:39:17.038Z,9.90
2019-05-07T09:41:45.679Z,10.68
2019-05-07T09:44:14.159Z,9.33
2019-05-07T09:46:43.356Z,13.88
2019-05-07T09:49:12.872Z,12.68
2019-05-07T09:51:42.712Z,15.75
2019-05-07T09:54:12.715Z,11.22
2019-05-07T09:56:42.249Z,14.98
2019-05-07T09:59:12.548Z,11.22
2019-05-07T10:01:41.283Z,14.63
2019-05-07T10:04:09.736Z,12.20
2019-05-07T10:06:38.565Z,9.93
2019-05-07T10:09:07.464Z,10.68
2019-05-07T10:11:43.778Z,11.30
2019-05-07T10:14:12.978Z,12.53
2019-05-07T10:16:52.559Z,11.33
2019-05-07T10:19:22.227Z,12.53
2019-05-07T10:21:52.959Z,11.53
2019-05-07T10:24:22.262Z,12.88
2019-05-07T10:26:53.116Z,11.03
2019-05-07T10:29:22.687Z,11.22
2019-05-07T10:31:52.749Z,12.65
2019-05-07T10:34:22.812Z,12.33
2019-05-07T10:36:52.347Z,12.98
2019-05-07T10:39:22.071Z,10.32
2019-05-07T10:41:50.972Z,10.78
2019-05-07T10:44:22.785Z,10.25
2019-05-07T10:47:09.102Z,13.78
2019-05-07T10:49:42.498Z,12.20
2019-05-07T10:52:12.560Z,11.73
2019-05-07T10:54:41.226Z,10.03
2019-05-07T10:57:11.839Z,9.63
2019-05-07T10:59:42.129Z,9.90
2019-05-07T11:02:12.591Z,10.00
2019-05-07T11:04:43.557Z,9.35
2019-05-07T11:07:11.400Z,11.15
2019-05-07T11:09:41.928Z,10.50
2019-05-07T11:12:10.078Z,9.55
2019-05-07T11:14:38.534Z,9.48
2019-05-07T11:17:11.907Z,11.90
2019-05-07T11:19:41.662Z,8.25
2019-05-07T11:22:11.621Z,12.35
2019-05-07T11:24:40.281Z,7.72
2019-05-07T11:27:08.761Z,11.35
2019-05-07T11:29:37.211Z,9.93
2019-05-07T11:32:05.705Z,11.15
2019-05-07T11:34:35.803Z,11.73
2019-05-07T11:37:04.522Z,11.50
2019-05-07T11:39:33.266Z,11.33
2019-05-07T11:42:22.007Z,11.75
2019-05-07T11:44:54.940Z,11.57
2019-05-07T11:47:33.346Z,11.70
2019-05-07T11:50:14.707Z,11.10
2019-05-07T11:53:02.682Z,8.35
2019-05-07T11:55:31.164Z,15.50
2019-05-07T11:57:59.626Z,10.90
2019-05-07T12:00:32.152Z,10.75
2019-05-07T12:03:02.139Z,12.47
2019-05-07T12:05:30.355Z,10.80
2019-05-07T12:07:58.808Z,12.68
2019-05-07T12:10:46.646Z,10.18
2019-05-07T12:13:15.159Z,10.32
2019-05-07T12:15:43.622Z,11.55
2019-05-07T12:18:12.181Z,9.35
2019-05-07T12:20:40.787Z,8.63
2019-05-07T12:23:09.241Z,15.30
2019-05-07T12:25:37.743Z,11.53
2019-05-07T12:28:06.423Z,9.63
2019-05-07T12:30:54.918Z,9.33
2019-05-07T12:33:37.058Z,11.15
2019-05-07T12:36:06.332Z,10.68
2019-05-07T12:38:34.795Z,11.08
2019-05-07T12:41:04.891Z,10.25
2019-05-07T12:43:33.461Z,8.25
2019-05-07T12:46:02.834Z,11.88
2019-05-07T12:48:31.526Z,9.08
2019-05-07T12:51:00.116Z,10.45
2019-05-07T12:53:31.936Z,10.75
2019-05-07T12:56:02.282Z,11.65
2019-05-07T12:58:32.254Z,10.05
2019-05-07T13:01:05.339Z,10.93
2019-05-07T13:03:35.612Z,7.80
2019-05-07T13:06:04.503Z,7.30
2019-05-07T13:08:33.127Z,9.40
2019-05-07T13:11:02.988Z,8.03
2019-05-07T13:13:32.109Z,10.43
2019-05-07T13:16:02.665Z,10.60
2019-05-07T13:18:31.470Z,6.97
2019-05-07T13:21:02.200Z,8.10
2019-05-07T13:23:31.785Z,7.05
2019-05-07T13:26:02.618Z,7.90
2019-05-07T13:28:30.798Z,7.03
2019-05-07T13:30:59.248Z,9.00
2019-05-07T13:33:28.181Z,8.28
2019-05-07T13:35:56.700Z,9.45
2019-05-07T13:38:33.079Z,8.38
2019-05-07T13:41:12.751Z,7.65
2019-05-07T13:44:02.679Z,8.08
2019-05-07T13:46:32.487Z,8.85
2019-05-07T13:49:02.103Z,8.03
2019-05-07T13:51:33.613Z,9.08
2019-05-07T13:54:02.117Z,9.18
2019-05-07T13:56:32.635Z,10.30
2019-05-07T13:59:02.368Z,10.65
2019-05-07T14:01:48.329Z,10.32
2019-05-07T14:04:16.989Z,13.18
2019-05-07T14:06:45.690Z,9.60
2019-05-07T14:09:15.947Z,7.12
2019-05-07T14:11:44.521Z,10.43
2019-05-07T14:14:13.029Z,9.53
2019-05-07T14:16:44.717Z,11.35
2019-05-07T14:19:12.967Z,7.60
2019-05-07T14:21:42.297Z,9.30
2019-05-07T14:24:14.583Z,7.47
2019-05-07T14:26:42.280Z,7.95
2019-05-07T14:29:11.221Z,9.08
2019-05-07T14:31:39.749Z,8.43
2019-05-07T14:34:12.703Z,10.65
2019-05-07T14:36:57.544Z,9.20
2019-05-07T14:39:26.025Z,7.42
2019-05-07T14:41:56.195Z,11.18
2019-05-07T14:44:26.358Z,7.62
2019-05-07T14:46:54.843Z,6.03
2019-05-07T14:49:23.310Z,12.07
2019-05-07T14:51:54.012Z,9.13
2019-05-07T14:54:22.769Z,9.38
2019-05-07T14:56:52.028Z,9.25
2019-05-07T14:59:21.273Z,11.35
2019-05-07T15:01:52.075Z,8.28
2019-05-07T15:04:22.044Z,11.25
2019-05-07T15:06:51.937Z,8.10
2019-05-07T15:09:22.429Z,7.95
2019-05-07T15:11:52.685Z,10.28
2019-05-07T15:14:21.327Z,9.98
2019-05-07T15:16:52.801Z,7.47
2019-05-07T15:19:21.688Z,7.55
2019-05-07T15:21:51.928Z,6.42
2019-05-07T15:24:22.068Z,7.47
2019-05-07T15:26:52.393Z,7.75
2019-05-07T15:29:22.356Z,7.00
2019-05-07T15:31:55.433Z,7.78
2019-05-07T15:34:24.324Z,10.45
2019-05-07T15:36:52.843Z,9.20
2019-05-07T15:39:22.276Z,6.78
2019-05-07T15:41:51.811Z,8.18
2019-05-07T15:44:20.747Z,9.60
2019-05-07T15:46:49.310Z,8.38
2019-05-07T15:49:17.785Z,9.90
2019-05-07T15:51:46.231Z,9.30
2019-05-07T15:54:14.724Z,7.53
2019-05-07T15:56:43.179Z,8.20
2019-05-07T15:59:13.269Z,8.80
2019-05-07T16:01:42.017Z,8.98
2019-05-07T16:04:21.618Z,8.13
2019-05-07T16:06:42.464Z,7.65
2019-05-07T16:09:12.854Z,7.03
2019-05-07T16:11:43.124Z,6.30
2019-05-07T16:14:14.639Z,9.53
2019-05-07T16:16:45.248Z,7.30
2019-05-07T16:19:15.344Z,10.53
2019-05-07T16:21:43.813Z,8.53
2019-05-07T16:24:12.328Z,8.75
2019-05-07T16:26:41.919Z,7.20
2019-05-07T16:29:13.022Z,8.80
2019-05-07T16:31:40.798Z,7.72
2019-05-07T16:34:09.252Z,9.10
2019-05-07T16:36:37.690Z,8.30
2019-05-07T16:39:07.436Z,11.55
2019-05-07T16:41:35.902Z,8.78
2019-05-07T16:44:04.991Z,7.40
2019-05-07T16:46:33.499Z,6.80
2019-05-07T16:49:02.398Z,8.75
2019-05-07T16:51:32.995Z,10.45
2019-05-07T16:54:03.224Z,9.35
2019-05-07T16:56:33.272Z,8.50
2019-05-07T16:59:07.560Z,12.00
2019-05-07T17:01:35.975Z,8.78
2019-05-07T17:04:05.144Z,7.20
2019-05-07T17:06:33.640Z,6.50
2019-05-07T17:09:03.752Z,8.48
2019-05-07T17:11:32.290Z,8.83
2019-05-07T17:14:02.338Z,6.92
2019-05-07T17:16:31.762Z,7.90
2019-05-07T17:19:02.347Z,9.03
2019-05-07T17:21:32.494Z,10.18
2019-05-07T17:24:02.545Z,9.28
2019-05-07T17:26:30.998Z,7.70
2019-05-07T17:28:59.512Z,11.05
2019-05-07T17:31:27.959Z,10.10
2019-05-07T17:33:56.418Z,9.03
2019-05-07T17:36:24.913Z,7.83
2019-05-07T17:38:53.363Z,7.53
2019-05-07T17:41:26.498Z,8.28
2019-05-07T17:43:52.229Z,8.00
2019-05-07T17:46:21.746Z,8.50
2019-05-07T17:48:52.180Z,7.12
2019-05-07T17:51:22.346Z,10.40
2019-05-07T17:53:59.635Z,5.92
2019-05-07T17:56:22.326Z,6.35
2019-05-07T17:58:52.228Z,6.83
2019-05-07T18:01:22.482Z,7.33
2019-05-07T18:03:52.049Z,7.37
2019-05-07T18:06:20.608Z,7.28
2019-05-07T18:08:49.057Z,8.30
2019-05-07T18:11:21.135Z,6.00
2019-05-07T18:13:47.745Z,7.30
2019-05-07T18:16:17.919Z,7.62
2019-05-07T18:18:46.366Z,8.38
2019-05-07T18:21:14.858Z,7.58
2019-05-07T18:23:43.468Z,6.85
2019-05-07T18:26:20.611Z,8.38
2019-05-07T18:28:42.308Z,8.25
2019-05-07T18:31:12.590Z,7.90
2019-05-07T18:33:54.400Z,8.20
2019-05-07T18:36:22.855Z,7.20
2019-05-07T18:38:52.858Z,10.88
2019-05-07T18:41:22.355Z,6.70
2019-05-07T18:43:54.371Z,5.58
2019-05-07T18:46:22.147Z,8.18
2019-05-07T18:48:51.852Z,9.05
2019-05-07T18:51:20.575Z,9.38
2019-05-07T18:53:49.032Z,8.13
2019-05-07T18:56:17.707Z,8.48
2019-05-07T18:58:46.156Z,6.70
2019-05-07T19:01:15.386Z,9.25
2019-05-07T19:03:43.896Z,16.82
2019-05-07T19:06:13.397Z,6.60
2019-05-07T19:08:42.389Z,6.22
2019-05-07T19:11:12.363Z,8.23
2019-05-07T19:13:41.978Z,7.50
2019-05-07T19:16:12.590Z,7.53
2019-05-07T19:18:43.135Z,7.72
2019-05-07T19:21:11.524Z,5.37
2019-05-07T19:23:42.207Z,8.28
2019-05-07T19:26:10.289Z,5.97
2019-05-07T19:28:38.739Z,8.55
2019-05-07T19:31:07.205Z,6.42
2019-05-07T19:33:35.760Z,7.47
2019-05-07T19:36:04.583Z,6.95
2019-05-07T19:38:33.044Z,7.92
2019-05-07T19:41:02.271Z,8.20
2019-05-07T19:43:32.516Z,7.58
2019-05-07T19:46:02.901Z,7.65
2019-05-07T19:48:32.287Z,6.72
2019-05-07T19:51:02.906Z,6.47
2019-05-07T19:53:32.752Z,6.83
2019-05-07T19:56:05.925Z,6.47
2019-05-07T19:58:34.453Z,7.42
2019-05-07T20:01:04.136Z,8.75
2019-05-07T20:03:32.633Z,8.50
2019-05-07T20:06:02.434Z,8.48
2019-05-07T20:08:32.318Z,9.63
2019-05-07T20:11:02.873Z,6.37
2019-05-07T20:13:32.370Z,9.38
2019-05-07T20:16:02.934Z,7.22
2019-05-07T20:18:32.664Z,8.13
2019-05-07T20:21:02.662Z,13.03
2019-05-07T20:23:32.331Z,8.95
2019-05-07T20:26:03.001Z,8.80
2019-05-07T20:28:32.569Z,9.18
2019-05-07T20:31:01.450Z,10.08
2019-05-07T20:33:29.974Z,9.10
2019-05-07T20:35:58.581Z,13.13
2019-05-07T20:38:27.036Z,8.98
2019-05-07T20:40:55.539Z,8.10
2019-05-07T20:43:24.164Z,8.68
2019-05-07T20:45:52.631Z,12.88
2019-05-07T20:48:22.631Z,13.10
2019-05-07T20:50:52.136Z,10.75
2019-05-07T20:53:22.402Z,10.60
2019-05-07T20:55:53.032Z,10.10
2019-05-07T20:58:22.128Z,11.35
2019-05-07T21:00:52.618Z,14.65
2019-05-07T21:03:23.410Z,9.08
2019-05-07T21:05:53.424Z,11.93
2019-05-07T21:08:22.830Z,10.43
2019-05-07T21:10:53.632Z,8.55
2019-05-07T21:13:30.141Z,12.90
2019-05-07T21:15:52.624Z,9.73
2019-05-07T21:18:23.208Z,11.08
2019-05-07T21:20:53.018Z,8.93
2019-05-07T21:23:23.012Z,9.18
2019-05-07T21:25:52.804Z,12.03
2019-05-07T21:28:22.577Z,11.10
2019-05-07T21:30:52.124Z,12.45
2019-05-07T21:33:22.856Z,10.45
2019-05-07T21:35:52.359Z,10.90
2019-05-07T21:38:22.343Z,15.35
2019-05-07T21:40:51.239Z,11.38
2019-05-07T21:43:21.915Z,12.28
2019-05-07T21:45:49.943Z,11.70
2019-05-07T21:48:18.447Z,13.43
2019-05-07T21:50:46.913Z,12.88
2019-05-07T21:53:29.341Z,10.03
2019-05-07T21:56:02.537Z,13.98
2019-05-07T21:58:32.871Z,12.55
2019-05-07T22:01:08.828Z,13.18
2019-05-07T22:03:37.354Z,12.00
2019-05-07T22:06:05.870Z,11.85
2019-05-07T22:08:34.366Z,11.30
2019-05-07T22:11:04.655Z,12.58
2019-05-07T22:13:33.138Z,10.78
2019-05-07T22:16:02.555Z,11.30
2019-05-07T22:18:31.948Z,10.50
2019-05-07T22:21:02.886Z,13.75
2019-05-07T22:23:32.325Z,10.38
2019-05-07T22:26:18.458Z,13.62
2019-05-07T22:28:32.091Z,13.85
2019-05-07T22:31:18.453Z,12.00
2019-05-07T22:33:48.616Z,16.25
2019-05-07T22:36:17.070Z,11.45
2019-05-07T22:38:45.553Z,12.45
2019-05-07T22:41:14.013Z,13.68
2019-05-07T22:43:42.561Z,11.97
2019-05-07T22:46:12.497Z,11.57
2019-05-07T22:48:41.893Z,12.90
2019-05-07T22:51:12.205Z,15.10
2019-05-07T22:53:40.884Z,13.53
2019-05-07T22:56:09.417Z,13.70
2019-05-07T22:58:51.854Z,11.78
2019-05-07T23:01:22.495Z,12.28
2019-05-07T23:03:52.083Z,13.68
2019-05-07T23:06:22.964Z,13.35
2019-05-07T23:08:52.990Z,12.70
2019-05-07T23:11:22.884Z,11.45
2019-05-07T23:13:52.415Z,13.38
2019-05-07T23:16:23.109Z,11.55
2019-05-07T23:18:51.894Z,13.15
2019-05-07T23:21:24.299Z,13.10
2019-05-07T23:23:52.634Z,13.08
2019-05-07T23:26:23.175Z,12.18
2019-05-07T23:28:51.934Z,13.00
2019-05-07T23:31:22.768Z,11.63
2019-05-07T23:33:52.299Z,12.85
2019-05-07T23:36:22.489Z,13.00
2019-05-07T23:38:52.077Z,13.10
2019-05-07T23:41:22.545Z,12.65
2019-05-07T23:44:12.349Z,11.83
2019-05-07T23:46:44.372Z,10.35
2019-05-07T23:49:12.496Z,12.53
2019-05-07T23:51:42.086Z,11.70
2019-05-07T23:54:12.196Z,12.75
2019-05-07T23:56:42.827Z,11.90
2019-05-07T23:59:12.695Z,12.35
